Circle Line Xii — WM8392 — position and weather

sailwx.info

Track history (hours):
 
Tides and Currents Weather Stations Pressure Air Temp Water Temp Dewpoint Dewpoint Depression Visibility Wind Speed Wind Dir Waves Ship Positions

Circle Line Xii

Owner: CIRCLE LINE SIGHTSEEING YACHTS, NEW YORK, NY. More information available from US FCC via Universal Licensing System and Coast Guard Vessel Documentation Center.

Last reported at 2016-Sep-27 19:33 UTC. Time now 2016-Sep-28 18:48 UTC.
Position N 40°46' W 074°00'.

MMSI: 367032250.

Date/timePositionNaut miles runAvg speedWind from/ knotsBaromVisibWave heightAir tempDewpointWater temp
2016-Sep-27 19:33N 40°46' W 074°00'0 0.0
2016-Sep-27 14:33N 40°46' W 074°00'4 0.2
2016-Sep-26 20:33N 40°42' W 074°02'4 3.8
2016-Sep-26 19:33N 40°46' W 074°00'0 0.1
2016-Sep-26 15:33N 40°46' W 074°01'3 0.1
2016-Sep-25 00:33N 40°43' W 074°01'3 1.6
2016-Sep-24 22:33N 40°46' W 074°00'0 0.0
2016-Sep-24 21:33N 40°46' W 074°00'1 0.5
2016-Sep-24 19:33N 40°45' W 074°01'1 1.1
2016-Sep-24 18:33N 40°46' W 074°00'0 0.0
2016-Sep-24 17:33N 40°46' W 074°00'0 0.3
2016-Sep-24 16:33N 40°46' W 074°01'  
Track history (hours):
 
Tides and Currents Weather Stations Pressure Air Temp Water Temp Dewpoint Dewpoint Depression Visibility Wind Speed Wind Dir Waves Ship Positions

Circle Line Xii

Owner: CIRCLE LINE SIGHTSEEING YACHTS, NEW YORK, NY. More information available from US FCC via Universal Licensing System and Coast Guard Vessel Documentation Center.

Last reported at 2016-Sep-27 19:33 UTC. Time now 2016-Sep-28 18:48 UTC.
Position N 40°46' W 074°00'.

MMSI: 367032250.

Date/timePositionNaut miles runAvg speedWind from/ knotsBaromVisibWave heightAir tempDewpointWater temp
2016-Sep-27 19:33N 40°46' W 074°00'0 0.0
2016-Sep-27 14:33N 40°46' W 074°00'4 0.2
2016-Sep-26 20:33N 40°42' W 074°02'4 3.8
2016-Sep-26 19:33N 40°46' W 074°00'0 0.1
2016-Sep-26 15:33N 40°46' W 074°01'3 0.1
2016-Sep-25 00:33N 40°43' W 074°01'3 1.6
2016-Sep-24 22:33N 40°46' W 074°00'0 0.0
2016-Sep-24 21:33N 40°46' W 074°00'1 0.5
2016-Sep-24 19:33N 40°45' W 074°01'1 1.1
2016-Sep-24 18:33N 40°46' W 074°00'0 0.0
2016-Sep-24 17:33N 40°46' W 074°00'0 0.3
2016-Sep-24 16:33N 40°46' W 074°01'  

Dump ship's entire track history